Aérodrome :
LOGIN :

S'inscrire | Disclaimer

   EN    FR    IT 

 










Légende :    VFR   VFR Marginal   IFR   IFR Intensif   IFR Très Intensif
Visi : 
Plafond : 
>= 8 km
>= 3000ft
5 à 8 km
1000 à 3000 ft
1500m à 5 km
500 à 1000 ft
800 à 1500m
200 à 500 ft
< 800m
< 200 ft
Symboles :   Orages  Brouillard  Fortes neiges  Fortes précipitations  Vent > 20 kt
SIGMETs :   Divers  Orages  Givrage  Turbulence  Onde Orograph.  Cendres Volcan.







- Altitude de l'aérodrome : 24 ft
- Code IATA : IBZ


LEIB - Ibiza

DERNIER METAR :
  • 130500Z 36002KT CAVOK 14/13 Q1020 NOSIG

METARs EXPIRÉS :
  • 130430Z 02002KT CAVOK 14/13 Q1020 NOSIG
  • 130400Z AUTO VRB01KT CAVOK 14/13 Q1019 TEMPO 1000
  • 130330Z AUTO VRB02KT CAVOK 14/13 Q1019 TEMPO 1000
  • 130300Z AUTO 35002KT CAVOK 14/13 Q1019 TEMPO 1000
  • 130230Z AUTO 01003KT 340V050 CAVOK 14/13 Q1019 TEMPO 1000

TAF TAF LEIB
Valide du 13 à 03h jusqu'au 14 à 03h UTC


130200Z 1303/1403 VRB03KT 4000 BR BKN005 TX21/1312Z TN13/1305Z
PROB30
TEMPO 1303/1306 0500 FG BKN002
TEMPO 1303/1308 35010KT
BECMG 1308/1310 07010KT 9999 NSW FEW025
BECMG 1318/1320 VRB03KT 4000 BR
Pas de NOTAMs connus pour ce terrain.



MET'MAP, la Météo Aéronautique d'un coup d'oeil ! - Copyright ORBIFLY Décembre 2007 - Disclaimer

ORBIFLY MET'MAP TEAM :

Programmation & Développement : Alexandra Zaïnal
Conception & Développement : Baudouin d'Aumeries
Co-Programmation & Développement : Marc-Olivier Méhu
Soutien technique & logistique : Manuel Goepfert

Contact : metmap@orbifly.com




SOURCES & CREDITS :

   NOAA